createdAt,value
2018-01-16T00:00:00.116Z,100.00
2018-01-16T00:02:28.459Z,100.00
2018-01-16T00:04:57.554Z,100.00
2018-01-16T00:07:25.950Z,100.00
2018-01-16T00:09:54.341Z,100.00
2018-01-16T00:12:22.669Z,100.00
2018-01-16T00:14:50.987Z,100.00
2018-01-16T00:17:19.334Z,100.00
2018-01-16T00:19:47.662Z,99.85
2018-01-16T00:22:33.656Z,99.95
2018-01-16T00:25:01.985Z,100.00
2018-01-16T00:27:30.310Z,100.00
2018-01-16T00:29:58.635Z,100.00
2018-01-16T00:32:26.957Z,100.00
2018-01-16T00:34:55.281Z,100.00
2018-01-16T00:37:23.636Z,100.00
2018-01-16T00:39:52.739Z,100.00
2018-01-16T00:42:21.075Z,100.00
2018-01-16T00:44:49.407Z,100.00
2018-01-16T00:47:17.793Z,100.00
2018-01-16T00:49:46.113Z,100.00
2018-01-16T00:52:14.428Z,100.00
2018-01-16T00:54:42.779Z,100.00
2018-01-16T00:57:11.093Z,100.00
2018-01-16T00:59:39.429Z,100.00
2018-01-16T01:02:07.760Z,100.00
2018-01-16T01:04:36.818Z,100.00
2018-01-16T01:07:05.989Z,100.00
2018-01-16T01:09:34.362Z,100.00
2018-01-16T01:12:02.735Z,100.00
2018-01-16T01:14:31.168Z,100.00
2018-01-16T01:16:59.520Z,100.00
2018-01-16T01:19:27.858Z,100.00
2018-01-16T01:21:56.218Z,100.00
2018-01-16T01:24:24.560Z,100.00
2018-01-16T01:26:52.904Z,100.00
2018-01-16T01:29:21.244Z,100.00
2018-01-16T01:31:49.597Z,100.00
2018-01-16T01:34:17.926Z,100.00
2018-01-16T01:36:46.465Z,100.00
2018-01-16T01:39:14.808Z,100.00
2018-01-16T01:41:43.163Z,100.00
2018-01-16T01:44:11.505Z,100.00
2018-01-16T01:46:41.204Z,100.00
2018-01-16T01:49:14.250Z,100.00
2018-01-16T01:51:43.360Z,100.00
2018-01-16T01:54:11.704Z,100.00
2018-01-16T01:56:40.978Z,100.00
2018-01-16T01:59:09.298Z,99.63
2018-01-16T02:01:37.618Z,99.56
2018-01-16T02:04:05.941Z,99.90
2018-01-16T02:06:34.259Z,99.77
2018-01-16T02:09:02.587Z,99.24
2018-01-16T02:11:30.922Z,98.60
2018-01-16T02:14:00.537Z,99.06
2018-01-16T02:16:29.654Z,98.79
2018-01-16T02:18:57.983Z,98.79
2018-01-16T02:21:26.333Z,98.65
2018-01-16T02:23:54.668Z,98.32
2018-01-16T02:26:23.805Z,98.38
2018-01-16T02:28:53.065Z,98.33
2018-01-16T02:31:21.389Z,98.16
2018-01-16T02:33:49.698Z,98.03
2018-01-16T02:36:18.808Z,98.20
2018-01-16T02:38:47.151Z,97.73
2018-01-16T02:41:15.500Z,97.44
2018-01-16T02:43:43.840Z,97.76
2018-01-16T02:46:12.949Z,97.43
2018-01-16T02:48:41.275Z,97.54
2018-01-16T02:51:09.632Z,97.28
2018-01-16T02:53:37.965Z,97.76
2018-01-16T02:56:07.068Z,98.01
2018-01-16T02:58:36.177Z,98.10
2018-01-16T03:01:04.511Z,97.61
2018-01-16T03:03:32.849Z,97.53
2018-01-16T03:06:02.253Z,98.28
2018-01-16T03:08:30.564Z,97.57
2018-01-16T03:10:58.907Z,97.61
2018-01-16T03:13:27.217Z,97.26
2018-01-16T03:15:55.533Z,97.20
2018-01-16T03:18:24.613Z,96.67
2018-01-16T03:20:52.966Z,96.41
2018-01-16T03:23:21.311Z,96.41
2018-01-16T03:25:49.658Z,96.62
2018-01-16T03:28:18.766Z,96.61
2018-01-16T03:30:49.092Z,96.41
2018-01-16T03:33:17.412Z,96.50
2018-01-16T03:35:45.762Z,96.82
2018-01-16T03:38:14.078Z,96.47
2018-01-16T03:40:42.424Z,95.71
2018-01-16T03:43:10.742Z,95.43
2018-01-16T03:45:39.076Z,94.93
2018-01-16T03:48:07.395Z,95.09
2018-01-16T03:50:35.732Z,94.45
2018-01-16T03:53:04.085Z,94.79
2018-01-16T03:55:32.422Z,94.85
2018-01-16T03:58:00.751Z,95.43
2018-01-16T04:00:29.083Z,95.58
2018-01-16T04:02:57.424Z,96.03
2018-01-16T04:05:25.765Z,95.95
2018-01-16T04:07:54.096Z,96.61
2018-01-16T04:10:22.436Z,96.66
2018-01-16T04:12:51.129Z,96.98
2018-01-16T04:15:19.447Z,96.93
2018-01-16T04:17:47.779Z,96.28
2018-01-16T04:20:16.113Z,96.22
2018-01-16T04:22:44.437Z,96.01
2018-01-16T04:25:12.751Z,95.83
2018-01-16T04:27:41.650Z,95.99
2018-01-16T04:30:09.970Z,96.24
2018-01-16T04:32:38.304Z,95.92
2018-01-16T04:35:06.627Z,96.37
2018-01-16T04:37:34.960Z,96.08
2018-01-16T04:40:03.297Z,96.03
2018-01-16T04:42:31.657Z,95.80
2018-01-16T04:45:00.047Z,95.87
2018-01-16T04:47:28.396Z,96.13
2018-01-16T04:49:57.678Z,95.93
2018-01-16T04:52:26.013Z,96.14
2018-01-16T04:54:54.321Z,96.35
2018-01-16T04:57:22.894Z,96.29
2018-01-16T04:59:51.221Z,97.15
2018-01-16T05:02:19.546Z,96.63
2018-01-16T05:04:47.875Z,96.75
2018-01-16T05:07:16.961Z,96.15
2018-01-16T05:09:45.291Z,96.04
2018-01-16T05:12:14.276Z,96.41
2018-01-16T05:14:42.608Z,95.78
2018-01-16T05:17:11.698Z,96.50
2018-01-16T05:19:40.016Z,96.93
2018-01-16T05:22:09.584Z,97.37
2018-01-16T05:24:38.684Z,97.62
2018-01-16T05:27:07.035Z,98.38
2018-01-16T05:29:35.369Z,98.52
2018-01-16T05:32:03.710Z,98.50
2018-01-16T05:34:32.791Z,98.09
2018-01-16T05:37:01.118Z,99.26
2018-01-16T05:39:29.442Z,99.32
2018-01-16T05:41:57.788Z,99.49
2018-01-16T05:44:26.113Z,99.58
2018-01-16T05:46:54.438Z,99.13
2018-01-16T05:49:22.774Z,99.12
2018-01-16T05:51:51.936Z,99.18
2018-01-16T05:54:20.250Z,98.99
2018-01-16T05:56:48.583Z,98.59
2018-01-16T05:59:16.922Z,99.20
2018-01-16T06:01:45.238Z,99.03
2018-01-16T06:04:13.617Z,98.45
2018-01-16T06:06:42.565Z,98.93
2018-01-16T06:09:10.900Z,98.82
2018-01-16T06:11:39.239Z,98.38
2018-01-16T06:14:07.559Z,98.30
2018-01-16T06:16:35.900Z,98.46
2018-01-16T06:19:04.210Z,97.78
2018-01-16T06:21:32.540Z,96.83
2018-01-16T06:24:02.630Z,97.14
2018-01-16T06:26:31.732Z,97.13
2018-01-16T06:29:00.810Z,96.74
2018-01-16T06:31:29.145Z,96.69
2018-01-16T06:33:57.510Z,96.98
2018-01-16T06:36:25.811Z,96.18
2018-01-16T06:38:54.927Z,95.88
2018-01-16T06:41:23.268Z,95.96
2018-01-16T06:43:51.590Z,97.25
2018-01-16T06:46:19.924Z,97.12
2018-01-16T06:48:48.264Z,96.11
2018-01-16T06:51:16.612Z,96.65
2018-01-16T06:53:44.934Z,96.39
2018-01-16T06:56:13.279Z,96.42
2018-01-16T06:58:41.602Z,96.46
2018-01-16T07:01:10.873Z,95.94
2018-01-16T07:03:39.244Z,95.51
2018-01-16T07:06:08.345Z,96.80
2018-01-16T07:08:36.692Z,97.36
2018-01-16T07:11:05.033Z,98.59
2018-01-16T07:13:33.362Z,98.57
2018-01-16T07:16:01.684Z,98.36
2018-01-16T07:18:30.021Z,98.42
2018-01-16T07:20:58.364Z,98.54
2018-01-16T07:23:26.702Z,98.33
2018-01-16T07:25:55.031Z,98.30
2018-01-16T07:28:23.362Z,97.82
2018-01-16T07:30:53.354Z,97.78
2018-01-16T07:33:21.704Z,97.96
2018-01-16T07:35:50.019Z,97.81
2018-01-16T07:38:19.116Z,97.35
2018-01-16T07:40:47.449Z,97.36
2018-01-16T07:43:15.766Z,96.88
2018-01-16T07:45:44.099Z,96.11
2018-01-16T07:48:12.415Z,95.43
2018-01-16T07:50:40.731Z,95.94
2018-01-16T07:53:09.068Z,96.07
2018-01-16T07:55:37.386Z,95.88
2018-01-16T07:58:10.952Z,95.83
2018-01-16T08:00:41.096Z,95.70
2018-01-16T08:03:09.414Z,96.03
2018-01-16T08:05:37.769Z,95.82
2018-01-16T08:08:06.097Z,95.54
2018-01-16T08:10:34.426Z,96.08
2018-01-16T08:13:02.750Z,95.89
2018-01-16T08:15:31.854Z,96.14
2018-01-16T08:18:00.178Z,96.10
2018-01-16T08:20:28.518Z,95.98
2018-01-16T08:22:56.846Z,96.21
2018-01-16T08:25:25.173Z,96.03
2018-01-16T08:27:53.499Z,96.27
2018-01-16T08:30:21.822Z,97.10
2018-01-16T08:32:50.167Z,96.88
2018-01-16T08:35:18.514Z,97.32
2018-01-16T08:37:47.602Z,97.16
2018-01-16T08:40:16.874Z,96.48
2018-01-16T08:42:45.246Z,96.91
2018-01-16T08:45:13.548Z,97.63
2018-01-16T08:47:41.878Z,97.33
2018-01-16T08:50:10.207Z,96.54
2018-01-16T08:52:38.550Z,95.74
2018-01-16T08:55:06.895Z,95.62
2018-01-16T08:57:35.246Z,95.91
2018-01-16T09:00:03.554Z,95.28
2018-01-16T09:02:31.901Z,95.00
2018-01-16T09:05:00.243Z,95.58
2018-01-16T09:07:29.337Z,96.63
2018-01-16T09:09:57.663Z,96.42
2018-01-16T09:12:25.986Z,96.54
2018-01-16T09:14:55.089Z,96.05
2018-01-16T09:17:23.431Z,95.98
2018-01-16T09:19:51.774Z,95.65
2018-01-16T09:22:20.107Z,95.28
2018-01-16T09:24:49.190Z,95.69
2018-01-16T09:27:17.829Z,95.85
2018-01-16T09:29:46.157Z,95.15
2018-01-16T09:32:15.272Z,95.25
2018-01-16T09:34:43.612Z,95.90
2018-01-16T09:37:11.987Z,95.11
2018-01-16T09:39:40.297Z,95.54
2018-01-16T09:42:08.638Z,95.20
2018-01-16T09:44:36.992Z,94.86
2018-01-16T09:47:05.325Z,93.97
2018-01-16T09:49:33.637Z,94.30
2018-01-16T09:52:01.964Z,94.62
2018-01-16T09:54:30.298Z,94.01
2018-01-16T09:56:58.647Z,94.26
2018-01-16T09:59:27.733Z,94.09
2018-01-16T10:01:56.052Z,94.89
2018-01-16T10:04:24.371Z,94.70
2018-01-16T10:06:52.689Z,93.50
2018-01-16T10:09:21.070Z,94.43
2018-01-16T10:11:49.381Z,95.17
2018-01-16T10:14:17.713Z,97.01
2018-01-16T10:16:46.051Z,95.95
2018-01-16T10:19:14.375Z,95.29
2018-01-16T10:21:42.712Z,95.59
2018-01-16T10:24:11.034Z,96.30
2018-01-16T10:26:39.352Z,95.88
2018-01-16T10:29:08.639Z,95.38
2018-01-16T10:31:36.962Z,96.40
2018-01-16T10:34:05.297Z,94.23
2018-01-16T10:36:33.606Z,93.57
2018-01-16T10:39:01.933Z,92.47
2018-01-16T10:41:30.250Z,90.91
2018-01-16T10:43:58.573Z,91.98
2018-01-16T10:46:26.890Z,92.09
2018-01-16T10:48:55.241Z,93.02
2018-01-16T10:51:23.688Z,92.94
2018-01-16T10:53:52.018Z,92.69
2018-01-16T10:56:20.360Z,93.30
2018-01-16T10:58:48.693Z,91.83
2018-01-16T11:01:17.037Z,91.12
2018-01-16T11:03:45.354Z,89.81
2018-01-16T11:06:13.684Z,90.36
2018-01-16T11:08:42.045Z,90.37
2018-01-16T11:11:10.392Z,90.32
2018-01-16T11:13:38.718Z,88.67
2018-01-16T11:16:07.095Z,89.51
2018-01-16T11:18:35.439Z,89.48
2018-01-16T11:21:04.540Z,89.78
2018-01-16T11:23:32.877Z,88.95
2018-01-16T11:26:01.212Z,90.87
2018-01-16T11:28:29.544Z,92.45
2018-01-16T11:30:58.595Z,94.57
2018-01-16T11:33:26.933Z,97.10
2018-01-16T11:35:55.281Z,100.00
2018-01-16T11:38:23.630Z,100.00
2018-01-16T11:40:53.985Z,100.00
2018-01-16T11:43:22.301Z,100.00
2018-01-16T11:45:51.877Z,100.00
2018-01-16T11:48:20.271Z,100.00
2018-01-16T11:50:48.583Z,100.00
2018-01-16T11:53:16.911Z,100.00
2018-01-16T11:55:45.264Z,100.00
2018-01-16T11:58:13.630Z,100.00
2018-01-16T12:00:42.451Z,100.00
2018-01-16T12:03:10.788Z,100.00
2018-01-16T12:05:39.140Z,100.00
2018-01-16T12:08:07.474Z,100.00
2018-01-16T12:10:35.839Z,100.00
2018-01-16T12:13:04.175Z,99.45
2018-01-16T12:15:32.508Z,98.83
2018-01-16T12:18:00.830Z,98.17
2018-01-16T12:20:29.930Z,97.79
2018-01-16T12:22:58.277Z,95.70
2018-01-16T12:25:26.613Z,96.18
2018-01-16T12:27:54.973Z,95.65
2018-01-16T12:30:23.278Z,96.49
2018-01-16T12:32:51.620Z,96.76
2018-01-16T12:35:19.967Z,96.03
2018-01-16T12:37:48.549Z,94.99
2018-01-16T12:40:16.875Z,94.98
2018-01-16T12:42:45.220Z,94.92
2018-01-16T12:45:14.333Z,94.11
2018-01-16T12:47:42.682Z,96.21
2018-01-16T12:50:11.587Z,94.39
2018-01-16T12:52:40.747Z,91.21
2018-01-16T12:55:09.062Z,90.75
2018-01-16T12:57:37.409Z,91.35
2018-01-16T13:00:05.744Z,89.95
2018-01-16T13:02:34.092Z,90.50
2018-01-16T13:05:03.194Z,91.68
2018-01-16T13:07:32.284Z,90.09
2018-01-16T13:10:00.602Z,89.95
2018-01-16T13:12:28.937Z,87.79
2018-01-16T13:14:57.285Z,87.98
2018-01-16T13:17:25.640Z,88.19
2018-01-16T13:19:53.970Z,89.17
2018-01-16T13:22:23.085Z,87.54
2018-01-16T13:24:51.429Z,88.07
2018-01-16T13:27:19.765Z,89.54
2018-01-16T13:29:48.100Z,89.53
2018-01-16T13:32:17.213Z,88.35
2018-01-16T13:34:45.548Z,87.97
2018-01-16T13:37:13.899Z,89.04
2018-01-16T13:39:42.242Z,90.66
2018-01-16T13:42:11.339Z,89.64
2018-01-16T13:44:39.666Z,90.97
2018-01-16T13:47:07.999Z,92.07
2018-01-16T13:49:36.324Z,92.46
2018-01-16T13:52:04.670Z,93.82
2018-01-16T13:54:33.590Z,93.19
2018-01-16T13:57:01.941Z,93.11
2018-01-16T13:59:30.262Z,93.47
2018-01-16T14:01:58.786Z,93.08
2018-01-16T14:04:27.108Z,91.55
2018-01-16T14:06:55.448Z,93.16
2018-01-16T14:09:23.775Z,91.84
2018-01-16T14:11:52.960Z,90.48
2018-01-16T14:14:21.274Z,91.22
2018-01-16T14:16:49.602Z,91.38
2018-01-16T14:19:17.919Z,90.10
2018-01-16T14:21:46.275Z,90.87
2018-01-16T14:24:14.652Z,89.14
2018-01-16T14:26:42.974Z,90.42
2018-01-16T14:29:11.748Z,90.16
2018-01-16T14:31:40.089Z,89.52
2018-01-16T14:34:08.399Z,89.96
2018-01-16T14:36:38.087Z,89.18
2018-01-16T14:39:06.406Z,89.88
2018-01-16T14:41:34.782Z,89.95
2018-01-16T14:44:03.123Z,88.99
2018-01-16T14:46:31.454Z,88.60
2018-01-16T14:48:59.785Z,89.15
2018-01-16T14:51:28.106Z,91.14
2018-01-16T14:53:56.422Z,91.67
2018-01-16T14:56:24.751Z,92.55
2018-01-16T14:58:53.072Z,91.67
2018-01-16T15:01:21.398Z,92.12
2018-01-16T15:03:49.711Z,91.57
2018-01-16T15:06:18.088Z,91.56
2018-01-16T15:08:46.406Z,90.54
2018-01-16T15:11:14.745Z,90.63
2018-01-16T15:13:43.064Z,90.88
2018-01-16T15:16:12.146Z,91.81
2018-01-16T15:18:40.468Z,92.31
2018-01-16T15:21:08.786Z,90.97
2018-01-16T15:23:38.121Z,92.14
2018-01-16T15:26:07.229Z,91.29
2018-01-16T15:28:35.546Z,91.06
2018-01-16T15:31:04.754Z,91.02
2018-01-16T15:33:33.104Z,91.38
2018-01-16T15:36:01.445Z,91.09
2018-01-16T15:38:29.789Z,90.10
2018-01-16T15:40:58.130Z,90.46
2018-01-16T15:43:26.435Z,90.60
2018-01-16T15:45:55.542Z,90.41
2018-01-16T15:48:23.888Z,90.89
2018-01-16T15:50:52.198Z,90.90
2018-01-16T15:53:20.544Z,91.04
2018-01-16T15:55:49.010Z,91.09
2018-01-16T15:58:17.335Z,90.37
2018-01-16T16:00:45.677Z,91.44
2018-01-16T16:03:14.006Z,92.77
2018-01-16T16:05:43.128Z,93.20
2018-01-16T16:08:11.475Z,93.45
2018-01-16T16:10:39.801Z,93.11
2018-01-16T16:13:08.118Z,92.04
2018-01-16T16:15:36.446Z,91.27
2018-01-16T16:18:05.734Z,91.39
2018-01-16T16:20:34.081Z,91.96
2018-01-16T16:23:02.420Z,91.48
2018-01-16T16:25:30.760Z,91.41
2018-01-16T16:27:59.850Z,91.32
2018-01-16T16:30:28.181Z,90.36
2018-01-16T16:32:56.519Z,89.48
2018-01-16T16:35:25.090Z,89.89
2018-01-16T16:37:54.830Z,90.70
2018-01-16T16:40:23.154Z,90.17
2018-01-16T16:42:51.495Z,90.58
2018-01-16T16:45:19.828Z,90.78
2018-01-16T16:47:48.942Z,90.79
2018-01-16T16:50:17.324Z,90.05
2018-01-16T16:52:45.643Z,89.91
2018-01-16T16:55:13.975Z,88.93
2018-01-16T16:57:42.330Z,89.91
2018-01-16T17:00:11.464Z,90.67
2018-01-16T17:02:39.801Z,90.28
2018-01-16T17:05:08.129Z,90.21
2018-01-16T17:07:36.461Z,90.49
2018-01-16T17:10:05.582Z,91.12
2018-01-16T17:12:33.946Z,90.88
2018-01-16T17:15:02.266Z,91.11
2018-01-16T17:17:30.610Z,90.90
2018-01-16T17:19:58.950Z,90.47
2018-01-16T17:22:27.299Z,90.64
2018-01-16T17:24:55.658Z,91.52
2018-01-16T17:27:24.014Z,91.12
2018-01-16T17:29:52.369Z,90.62
2018-01-16T17:32:20.777Z,90.58
2018-01-16T17:34:49.121Z,91.71
2018-01-16T17:37:17.529Z,91.60
2018-01-16T17:39:45.906Z,91.04
2018-01-16T17:42:15.260Z,92.04
2018-01-16T17:44:43.658Z,92.30
2018-01-16T17:47:12.420Z,92.54
2018-01-16T17:49:41.269Z,93.15
2018-01-16T17:52:09.871Z,94.43
2018-01-16T17:54:39.277Z,94.65
2018-01-16T17:57:08.693Z,95.29
2018-01-16T17:59:37.521Z,95.24
2018-01-16T18:02:06.625Z,94.79
2018-01-16T18:04:35.801Z,95.32
2018-01-16T18:07:04.278Z,95.06
2018-01-16T18:09:33.653Z,95.55
2018-01-16T18:12:02.844Z,96.40
2018-01-16T18:14:33.041Z,97.09
2018-01-16T18:17:02.637Z,98.05
2018-01-16T18:19:32.349Z,98.09
2018-01-16T18:22:02.227Z,98.76
2018-01-16T18:24:31.963Z,98.81
2018-01-16T18:36:42.963Z,98.29
2018-01-16T18:39:12.862Z,98.34
2018-01-16T18:41:44.475Z,98.83
2018-01-16T18:44:14.277Z,99.08
2018-01-16T18:46:44.716Z,99.05
2018-01-16T18:49:14.557Z,98.49
2018-01-16T18:51:44.453Z,97.90
2018-01-16T18:54:14.302Z,97.89
2018-01-16T18:56:44.936Z,97.94
2018-01-16T18:59:14.748Z,97.42
2018-01-16T19:01:44.638Z,97.75
2018-01-16T19:04:14.582Z,98.42
2018-01-16T19:06:45.082Z,98.69
2018-01-16T19:09:15.877Z,97.58
2018-01-16T19:11:45.695Z,97.24
2018-01-16T19:14:15.633Z,97.77
2018-01-16T19:16:46.497Z,96.99
2018-01-16T19:19:27.692Z,97.28
2018-01-16T19:21:57.551Z,96.47
2018-01-16T19:24:27.676Z,96.02
2018-01-16T19:27:02.950Z,95.55
2018-01-16T19:29:32.858Z,94.99
2018-01-16T19:32:04.481Z,94.54
2018-01-16T19:34:34.950Z,94.82
2018-01-16T19:37:04.865Z,94.72
2018-01-16T19:39:37.021Z,94.18
2018-01-16T19:42:06.995Z,94.16
2018-01-16T19:44:36.833Z,94.24
2018-01-16T19:47:06.698Z,94.67
2018-01-16T19:49:37.669Z,94.03
2018-01-16T19:52:08.414Z,94.38
2018-01-16T19:54:38.399Z,93.77
2018-01-16T19:57:08.345Z,93.52
2018-01-16T19:59:38.288Z,93.32
2018-01-16T20:02:08.273Z,93.10
2018-01-16T20:04:39.086Z,93.29
2018-01-16T20:07:09.128Z,93.54
2018-01-16T20:09:39.015Z,94.05
2018-01-16T20:12:09.014Z,94.63
2018-01-16T20:14:38.886Z,93.90
2018-01-16T20:17:09.172Z,93.84
2018-01-16T20:19:39.445Z,94.27
2018-01-16T20:22:09.281Z,94.11
2018-01-16T20:24:43.011Z,94.76
2018-01-16T20:27:12.891Z,94.71
2018-01-16T20:29:43.734Z,94.45
2018-01-16T20:32:13.734Z,94.26
2018-01-16T20:34:43.605Z,94.10
2018-01-16T20:37:14.298Z,93.90
2018-01-16T20:39:44.153Z,94.33
2018-01-16T20:42:15.983Z,94.54
2018-01-16T20:44:45.865Z,93.50
2018-01-16T20:47:15.826Z,93.71
2018-01-16T20:49:45.794Z,93.67
2018-01-16T20:52:15.754Z,94.26
2018-01-16T20:54:46.618Z,94.79
2018-01-16T20:57:16.533Z,95.74
2018-01-16T20:59:47.223Z,95.12
2018-01-16T21:02:17.385Z,94.48
2018-01-16T21:04:47.327Z,94.64
2018-01-16T21:07:17.292Z,94.91
2018-01-16T21:09:48.085Z,94.26
2018-01-16T21:12:18.191Z,94.16
2018-01-16T21:14:48.153Z,94.58
2018-01-16T21:17:18.142Z,94.28
2018-01-16T21:19:48.151Z,94.03
2018-01-16T21:22:18.048Z,94.55
2018-01-16T21:24:48.711Z,94.57
2018-01-16T21:27:18.632Z,95.08
2018-01-16T21:29:49.332Z,94.64
2018-01-16T21:32:19.343Z,95.17
2018-01-16T21:34:49.355Z,95.44
2018-01-16T21:37:19.228Z,95.20
2018-01-16T21:39:49.162Z,94.98
2018-01-16T21:42:25.035Z,95.61
2018-01-16T21:44:54.889Z,95.72
2018-01-16T21:47:24.706Z,95.43
2018-01-16T21:49:54.586Z,95.50
2018-01-16T21:52:25.161Z,95.50
2018-01-16T21:54:55.002Z,95.13
2018-01-16T21:57:24.848Z,94.73
2018-01-16T21:59:54.635Z,93.85
2018-01-16T22:02:24.409Z,93.54
2018-01-16T22:04:55.031Z,93.50
2018-01-16T22:07:24.765Z,93.54
2018-01-16T22:09:54.549Z,93.78
2018-01-16T22:12:24.396Z,93.82
2018-01-16T22:14:53.938Z,94.02
2018-01-16T22:17:24.540Z,93.31
2018-01-16T22:19:54.169Z,93.29
2018-01-16T22:22:24.037Z,93.95
2018-01-16T22:24:52.784Z,94.86
2018-01-16T22:27:21.417Z,97.74
2018-01-16T22:29:49.818Z,100.00
2018-01-16T22:32:18.151Z,100.00
2018-01-16T22:34:46.487Z,100.00
2018-01-16T22:37:14.816Z,100.00
2018-01-16T22:39:43.179Z,100.00
2018-01-16T22:42:11.503Z,100.00
2018-01-16T22:44:40.588Z,100.00
2018-01-16T22:47:08.913Z,100.00
2018-01-16T22:49:37.248Z,100.00
2018-01-16T22:52:06.368Z,100.00
2018-01-16T22:54:34.699Z,100.00
2018-01-16T22:57:03.026Z,100.00
2018-01-16T22:59:31.365Z,100.00
2018-01-16T23:02:00.918Z,100.00
2018-01-16T23:04:29.256Z,100.00
2018-01-16T23:06:57.599Z,100.00
2018-01-16T23:09:25.918Z,99.18
2018-01-16T23:11:54.234Z,98.73
2018-01-16T23:14:22.538Z,98.59
2018-01-16T23:16:50.882Z,98.23
2018-01-16T23:19:19.216Z,97.92
2018-01-16T23:21:47.546Z,97.93
2018-01-16T23:24:15.878Z,97.92
2018-01-16T23:26:44.962Z,97.14
2018-01-16T23:29:13.313Z,96.95
2018-01-16T23:31:41.644Z,96.53
2018-01-16T23:34:09.959Z,95.96
2018-01-16T23:36:38.291Z,95.68
2018-01-16T23:39:06.665Z,94.93
2018-01-16T23:41:35.754Z,95.45
2018-01-16T23:44:04.826Z,95.51
2018-01-16T23:46:33.150Z,95.16
2018-01-16T23:49:01.482Z,94.88
2018-01-16T23:51:29.809Z,94.69
2018-01-16T23:53:58.122Z,94.72
2018-01-16T23:56:26.438Z,94.57
2018-01-16T23:58:54.760Z,94.24
